Time;durP1;ratioP1;P1;durP2;ratioP2;P2;SDS_P1;SDS_P2;PMS_P1;PMS_P2;Temp;Humidity;BMP_temperature;BMP_pressure;BME280_temperature;BME280_humidity;BME280_pressure;Samples;Min_cycle;Max_cycle;Signal;HPM_P1;HPM_P2
2022/07/21 00:01:02;;;;;;;5.57;3.55;;;15.00;99.90;;;;;;5205924;28;20124;-73
2022/07/21 00:03:33;;;;;;;6.15;3.58;;;15.10;99.90;;;;;;5205559;28;20101;-74
2022/07/21 00:06:04;;;;;;;5.18;4.07;;;15.30;99.90;;;;;;5204394;28;20456;-73
2022/07/21 00:08:35;;;;;;;5.85;4.00;;;15.20;99.90;;;;;;5205418;28;20048;-73
2022/07/21 00:11:07;;;;;;;7.43;4.03;;;15.30;99.90;;;;;;5205507;28;20034;-73
2022/07/21 00:13:38;;;;;;;6.80;4.75;;;15.10;99.90;;;;;;5205297;28;20110;-75
2022/07/21 00:16:08;;;;;;;6.53;3.78;;;15.00;99.90;;;;;;5205430;28;20393;-72
2022/07/21 00:18:39;;;;;;;5.13;3.70;;;15.30;99.90;;;;;;5205262;28;20037;-73
2022/07/21 00:21:10;;;;;;;6.45;4.45;;;15.20;99.90;;;;;;5205412;28;20029;-73
2022/07/21 00:23:41;;;;;;;9.48;6.38;;;15.00;99.90;;;;;;5204112;28;20039;-73
2022/07/21 00:26:12;;;;;;;6.07;4.35;;;14.80;99.90;;;;;;5205254;28;20024;-74
2022/07/21 00:28:43;;;;;;;7.00;4.35;;;14.70;99.90;;;;;;5205399;28;20029;-74
2022/07/21 00:31:14;;;;;;;8.60;4.22;;;14.80;99.90;;;;;;5205307;28;20029;-72
2022/07/21 00:33:45;;;;;;;5.90;4.47;;;14.90;99.90;;;;;;5205106;28;20034;-73
2022/07/21 00:36:16;;;;;;;8.82;4.80;;;15.00;99.90;;;;;;5205059;28;20369;-75
2022/07/21 00:38:47;;;;;;;10.95;6.75;;;14.90;99.90;;;;;;5204872;28;20128;-73
2022/07/21 00:41:18;;;;;;;7.85;4.35;;;14.80;99.90;;;;;;5204838;28;20048;-73
2022/07/21 00:43:49;;;;;;;10.30;5.85;;;14.90;99.90;;;;;;5204417;28;20025;-75
2022/07/21 00:46:21;;;;;;;10.25;6.35;;;14.90;99.90;;;;;;5204656;28;20017;-72
2022/07/21 00:48:52;;;;;;;12.38;8.23;;;14.90;99.90;;;;;;5205012;28;20029;-74
2022/07/21 00:51:22;;;;;;;10.55;6.80;;;14.60;99.90;;;;;;5205126;28;20024;-73
2022/07/21 00:53:53;;;;;;;11.50;7.75;;;14.50;99.90;;;;;;5205117;28;20100;-73
2022/07/21 00:56:24;;;;;;;13.02;8.40;;;14.30;99.90;;;;;;5204787;28;20431;-74
2022/07/21 00:58:55;;;;;;;10.27;6.28;;;14.50;99.90;;;;;;5204912;28;20021;-74
2022/07/21 01:01:26;;;;;;;10.68;7.43;;;14.60;99.90;;;;;;5205046;28;20039;-73
2022/07/21 01:03:57;;;;;;;10.43;6.30;;;14.60;99.90;;;;;;5204785;28;20697;-73
2022/07/21 01:06:28;;;;;;;11.65;7.10;;;14.50;99.90;;;;;;5204800;28;20104;-72
2022/07/21 01:08:59;;;;;;;10.63;6.80;;;14.70;99.90;;;;;;5204660;28;20369;-74
2022/07/21 01:11:31;;;;;;;11.13;7.40;;;14.80;99.90;;;;;;5204806;28;20119;-73
2022/07/21 01:14:02;;;;;;;9.80;6.68;;;14.70;99.90;;;;;;5204692;28;20053;-73
2022/07/21 01:16:33;;;;;;;11.35;7.15;;;14.60;99.90;;;;;;5204726;28;20029;-74
2022/07/21 01:19:06;;;;;;;10.93;7.15;;;14.40;99.90;;;;;;5204753;28;20087;-73
2022/07/21 01:21:41;;;;;;;11.02;6.80;;;14.70;99.90;;;;;;5204663;28;20037;-72
2022/07/21 01:24:13;;;;;;;12.35;7.70;;;14.70;99.90;;;;;;5203576;28;20497;-73
2022/07/21 01:26:49;;;;;;;12.43;7.43;;;14.20;99.90;;;;;;5204673;28;20076;-73
2022/07/21 01:29:21;;;;;;;11.82;7.72;;;14.50;99.90;;;;;;5200732;28;20057;-73
2022/07/21 01:31:52;;;;;;;13.27;7.70;;;14.30;99.90;;;;;;5204488;28;20021;-74
2022/07/21 01:34:23;;;;;;;13.98;7.97;;;14.40;99.90;;;;;;5204435;28;20474;-73
2022/07/21 01:36:54;;;;;;;12.30;6.75;;;14.50;99.90;;;;;;5204670;28;20013;-73
2022/07/21 01:42:14;;;;;;;10.65;7.32;;;14.20;99.90;;;;;;5200340;28;20068;-72
2022/07/21 01:44:45;;;;;;;14.55;7.93;;;14.20;99.90;;;;;;5204533;28;20018;-73
2022/07/21 01:47:17;;;;;;;12.00;7.88;;;14.20;99.90;;;;;;5204645;28;20032;-73
2022/07/21 01:49:48;;;;;;;11.85;7.68;;;14.40;99.90;;;;;;5204425;28;20029;-73
2022/07/21 01:52:19;;;;;;;12.88;7.80;;;14.30;99.90;;;;;;5204393;28;20029;-73
2022/07/21 01:54:50;;;;;;;13.70;8.30;;;14.50;99.90;;;;;;5200501;28;20377;-73
2022/07/21 01:57:21;;;;;;;13.88;7.78;;;14.50;99.90;;;;;;5204510;28;20029;-73
2022/07/21 01:59:52;;;;;;;11.98;7.25;;;14.70;99.90;;;;;;5204237;28;20033;-73
2022/07/21 02:02:22;;;;;;;11.23;7.75;;;14.60;99.90;;;;;;5204353;28;20100;-73
2022/07/21 02:04:53;;;;;;;13.65;8.00;;;14.40;99.90;;;;;;5206304;28;20021;-73
2022/07/21 02:07:24;;;;;;;12.07;7.75;;;14.50;99.90;;;;;;5206843;28;20029;-73
2022/07/21 02:09:55;;;;;;;10.60;8.25;;;14.30;99.90;;;;;;5207965;28;20375;-73
2022/07/21 02:12:26;;;;;;;12.68;8.18;;;14.40;99.90;;;;;;5208109;28;20039;-73
2022/07/21 02:14:57;;;;;;;10.52;8.10;;;14.10;99.90;;;;;;5207951;28;20025;-72
2022/07/21 02:17:27;;;;;;;12.68;7.05;;;13.80;99.90;;;;;;5207900;28;20457;-73
2022/07/21 02:19:58;;;;;;;12.05;7.47;;;14.10;99.90;;;;;;5207766;28;20025;-73
2022/07/21 02:22:29;;;;;;;13.68;7.82;;;14.30;99.90;;;;;;5207761;28;20228;-72
2022/07/21 02:25:00;;;;;;;12.23;7.47;;;13.90;99.90;;;;;;5206648;28;20014;-73
2022/07/21 02:27:31;;;;;;;12.68;7.95;;;14.30;99.90;;;;;;5207648;28;20030;-73
2022/07/21 02:55:31;;;;;;;;;;;14.30;99.90;;;;;;5304201;27;20425;-73
2022/07/21 02:58:15;;;;;;;;;;;13.90;99.90;;;;;;5297278;28;20558;-74
2022/07/21 03:00:48;;;;;;;;;;;13.90;99.90;;;;;;5304371;27;20164;-71
2022/07/21 03:03:20;;;;;;;;;;;13.80;99.90;;;;;;5306037;27;20038;-73
2022/07/21 03:05:51;;;;;;;;;;;14.10;99.90;;;;;;5303096;27;20038;-70
2022/07/21 03:08:22;;;;;;;;;;;14.00;99.90;;;;;;5306010;27;20002;-73
2022/07/21 03:10:53;;;;;;;;;;;13.80;99.90;;;;;;5300634;27;20044;-72
2022/07/21 03:13:24;;;;;;;;;;;14.10;99.90;;;;;;5305269;28;20015;-73
2022/07/21 03:15:55;;;;;;;;;;;14.10;99.90;;;;;;5291158;27;20046;-70
2022/07/21 03:18:25;;;;;;;;;;;14.30;99.90;;;;;;5285584;27;20040;-72
2022/07/21 03:20:56;;;;;;;;;;;14.30;99.90;;;;;;5284290;28;20040;-71
2022/07/21 03:23:27;;;;;;;;;;;13.90;99.90;;;;;;5283546;28;20064;-71
2022/07/21 03:25:58;;;;;;;;;;;14.10;99.90;;;;;;5283411;28;20419;-70
2022/07/21 03:28:28;;;;;;;;;;;14.30;99.90;;;;;;5286105;28;20004;-74
2022/07/21 03:30:59;;;;;;;;;;;14.20;99.90;;;;;;5284065;27;20032;-70
2022/07/21 03:33:30;;;;;;;;;;;14.20;99.90;;;;;;5283167;28;20351;-69
2022/07/21 03:36:01;;;;;;;;;;;14.50;99.90;;;;;;5284185;28;20045;-70
2022/07/21 03:38:32;;;;;;;;;;;14.60;99.90;;;;;;5283637;28;19965;-74
2022/07/21 03:41:02;;;;;;;;;;;14.50;99.90;;;;;;5283151;28;20154;-73
2022/07/21 03:43:35;;;;;;;;;;;14.50;99.90;;;;;;5283103;28;20056;-71
2022/07/21 03:46:06;;;;;;;;;;;14.70;99.90;;;;;;5288310;28;20023;-71
2022/07/21 03:48:37;;;;;;;;;;;14.60;99.90;;;;;;5284122;28;19961;-71
2022/07/21 03:51:09;;;;;;;;;;;14.60;99.90;;;;;;5285295;28;20136;-70
2022/07/21 03:53:39;;;;;;;;;;;14.60;99.90;;;;;;5286480;28;19912;-72
2022/07/21 03:56:10;;;;;;;;;;;15.10;99.90;;;;;;5270462;28;19935;-72
2022/07/21 04:57:27;;;;;;;;;;;17.50;99.90;;;;;;5306626;27;20394;-74
2022/07/21 04:59:58;;;;;;;6.72;4.07;;;18.30;99.90;;;;;;5297164;28;19923;-74
2022/07/21 05:02:29;;;;;;;8.85;4.18;;;18.30;99.90;;;;;;5304705;28;20063;-74
2022/07/21 05:05:01;;;;;;;7.40;3.85;;;18.50;99.90;;;;;;5299740;28;20076;-71
2022/07/21 05:07:32;;;;;;;6.13;3.80;;;18.70;99.90;;;;;;5294835;28;20039;-75
2022/07/21 05:10:08;;;;;;;7.28;3.50;;;18.90;99.90;;;;;;5302429;27;20475;-70
2022/07/21 05:12:39;;;;;;;8.75;3.78;;;19.20;99.90;;;;;;5301672;27;20084;-72
2022/07/21 05:15:11;;;;;;;4.55;3.10;;;19.20;99.90;;;;;;5300220;28;20031;-70
2022/07/21 05:17:42;;;;;;;5.25;2.80;;;19.20;99.90;;;;;;5286025;28;20020;-69
2022/07/21 05:20:13;;;;;;;6.78;3.67;;;19.40;99.90;;;;;;5284507;28;20031;-68
2022/07/21 05:22:44;;;;;;;10.65;3.60;;;19.60;99.90;;;;;;5283130;28;20066;-69
2022/07/21 05:25:17;;;;;;;3.90;2.92;;;20.00;99.90;;;;;;5280998;28;20039;-73
2022/07/21 05:27:49;;;;;;;4.63;2.50;;;20.30;99.90;;;;;;5279008;28;20039;-73
2022/07/21 05:30:22;;;;;;;8.65;3.03;;;20.10;99.90;;;;;;5279006;28;20603;-71
2022/07/21 05:32:53;;;;;;;4.32;2.72;;;20.30;99.90;;;;;;5257238;28;20547;-74
2022/07/21 05:35:24;;;;;;;5.10;2.70;;;20.30;99.90;;;;;;5269925;28;20016;-69
2022/07/21 05:37:55;;;;;;;6.75;3.22;;;20.80;99.90;;;;;;5280837;28;20024;-73
2022/07/21 05:40:26;;;;;;;8.68;3.42;;;20.90;99.90;;;;;;5269601;28;20016;-72
2022/07/21 05:42:57;;;;;;;4.30;2.92;;;21.20;99.90;;;;;;5281181;28;20510;-69
2022/07/21 05:45:30;;;;;;;8.20;3.17;;;21.40;99.90;;;;;;5285131;28;20111;-72
2022/07/21 05:48:01;;;;;;;7.15;3.45;;;21.70;99.90;;;;;;5267676;28;20028;-69
2022/07/21 05:50:32;;;;;;;5.20;3.10;;;21.50;99.90;;;;;;5285216;28;20455;-72
2022/07/21 05:53:03;;;;;;;7.47;2.88;;;21.90;99.90;;;;;;5272612;28;20078;-72
2022/07/21 05:55:33;;;;;;;9.75;3.47;;;21.80;99.90;;;;;;5280713;28;20082;-72
2022/07/21 05:58:04;;;;;;;9.25;3.72;;;22.10;99.90;;;;;;5259533;28;20115;-73
2022/07/21 06:00:35;;;;;;;8.43;3.40;;;22.20;99.90;;;;;;5266114;28;20442;-73
2022/07/21 06:03:06;;;;;;;10.18;3.80;;;22.60;99.90;;;;;;5262951;28;20127;-72
2022/07/21 06:05:37;;;;;;;9.35;3.97;;;22.70;99.90;;;;;;5253763;28;20079;-71
2022/07/21 06:08:07;;;;;;;10.13;4.43;;;22.70;99.90;;;;;;5265725;28;20035;-71
2022/07/21 06:10:38;;;;;;;10.43;4.50;;;22.70;99.90;;;;;;5258660;28;20464;-71
2022/07/21 06:39:59;;;;;;;6.25;2.05;;;22.80;99.90;;;;;;5285817;27;20877;-71
2022/07/21 06:42:30;;;;;;;4.63;1.98;;;24.20;99.90;;;;;;5268841;28;20057;-71
2022/07/21 06:45:01;;;;;;;6.78;1.73;;;24.50;99.90;;;;;;5277613;28;20090;-71
2022/07/21 06:47:36;;;;;;;5.15;1.73;;;24.50;99.90;;;;;;5277100;28;20028;-72
2022/07/21 06:50:08;;;;;;;6.65;1.92;;;24.50;99.90;;;;;;5260664;28;20016;-72
2022/07/21 06:52:39;;;;;;;4.28;2.10;;;24.50;99.90;;;;;;5259873;28;20475;-72
2022/07/21 06:55:10;;;;;;;5.00;2.20;;;24.80;99.90;;;;;;5252893;28;20070;-72
2022/07/21 06:57:41;;;;;;;5.25;2.10;;;25.20;99.90;;;;;;5251019;28;20032;-72
2022/07/21 07:00:12;;;;;;;7.13;2.10;;;25.00;99.90;;;;;;5260071;28;20032;-73
2022/07/21 08:09:19;;;;;;;5.07;1.80;;;27.60;99.90;;;;;;5295046;27;20484;-72
2022/07/21 08:11:50;;;;;;;7.65;2.83;;;27.80;99.90;;;;;;5306848;28;20336;-70
2022/07/21 08:14:21;;;;;;;5.90;2.78;;;27.20;99.90;;;;;;5305561;28;20031;-72
2022/07/21 08:16:52;;;;;;;12.73;4.13;;;27.50;99.90;;;;;;5306314;28;20374;-71
2022/07/21 08:19:23;;;;;;;10.73;4.70;;;27.80;99.90;;;;;;5306941;28;20041;-71
2022/07/21 08:21:54;;;;;;;9.73;4.10;;;28.10;99.90;;;;;;5307528;28;20008;-72
2022/07/21 08:24:25;;;;;;;9.55;4.65;;;28.40;99.90;;;;;;5307234;28;20020;-72
2022/07/21 08:26:56;;;;;;;10.63;3.70;;;28.00;99.90;;;;;;5307056;28;20015;-72
2022/07/21 08:29:26;;;;;;;8.73;3.00;;;28.30;99.90;;;;;;5307083;28;20024;-73
2022/07/21 08:31:57;;;;;;;6.07;2.55;;;28.60;99.90;;;;;;5307330;28;20022;-72
2022/07/21 08:34:28;;;;;;;7.20;2.13;;;28.50;99.90;;;;;;5307165;28;20031;-71
2022/07/21 08:36:59;;;;;;;6.95;2.50;;;28.10;99.90;;;;;;5307126;28;20351;-71
2022/07/21 08:39:30;;;;;;;11.23;2.72;;;28.60;99.90;;;;;;5306930;28;20039;-69
2022/07/21 08:42:01;;;;;;;9.02;2.72;;;28.70;99.90;;;;;;5307325;28;20023;-72
2022/07/21 08:44:32;;;;;;;4.90;2.50;;;28.60;99.90;;;;;;5307058;28;20081;-71
2022/07/21 08:47:06;;;;;;;5.85;2.80;;;29.40;99.90;;;;;;5290149;28;20072;-73
2022/07/21 08:49:38;;;;;;;6.55;2.55;;;28.80;99.90;;;;;;5285133;28;20115;-74
2022/07/21 08:52:09;;;;;;;3.53;1.60;;;29.10;99.90;;;;;;5289813;28;20024;-74
2022/07/21 08:54:39;;;;;;;6.05;2.08;;;29.00;99.90;;;;;;5288551;28;20089;-73
2022/07/21 08:57:10;;;;;;;4.97;1.50;;;29.40;99.90;;;;;;5284937;28;20385;-69
2022/07/21 08:59:41;;;;;;;4.53;1.70;;;29.20;99.90;;;;;;5284390;28;20027;-73
2022/07/21 09:02:33;;;;;;;2.55;1.60;;;29.20;99.90;;;;;;5286786;28;20383;-72
2022/07/21 09:05:07;;;;;;;2.90;1.35;;;29.40;99.90;;;;;;5285146;28;20356;-73
2022/07/21 09:07:56;;;;;;;5.78;1.45;;;29.20;99.90;;;;;;5278848;28;20494;-73
2022/07/21 09:10:29;;;;;;;3.45;1.50;;;30.10;99.90;;;;;;5271016;28;20506;-70
2022/07/21 09:13:04;;;;;;;5.10;1.40;;;29.10;99.90;;;;;;5275465;28;20378;-73
2022/07/21 09:15:36;;;;;;;4.03;1.92;;;29.10;99.90;;;;;;5269561;28;20375;-74
2022/07/21 09:18:15;;;;;;;6.15;1.80;;;29.00;99.90;;;;;;5270247;28;20082;-74
2022/07/21 09:20:49;;;;;;;5.13;1.65;;;29.70;99.90;;;;;;5269237;28;20028;-73
2022/07/21 09:23:22;;;;;;;6.68;1.77;;;30.00;99.90;;;;;;5270674;28;20016;-74
2022/07/21 09:25:55;;;;;;;2.65;1.27;;;29.70;99.90;;;;;;5270629;28;20052;-71
2022/07/21 09:28:33;;;;;;;3.53;1.20;;;29.60;99.90;;;;;;5270365;28;20371;-74
2022/07/21 09:31:07;;;;;;;5.22;1.70;;;30.50;99.90;;;;;;5270676;28;20020;-70
2022/07/21 09:33:41;;;;;;;6.05;1.42;;;30.20;99.90;;;;;;5270870;28;20032;-69
2022/07/21 09:36:15;;;;;;;5.55;1.63;;;29.70;99.90;;;;;;5270282;28;20450;-73
2022/07/21 09:38:58;;;;;;;6.00;1.63;;;29.80;99.90;;;;;;5270533;28;20074;-73
2022/07/21 09:41:29;;;;;;;4.88;1.30;;;30.20;99.90;;;;;;5270764;28;20020;-72
2022/07/21 09:44:00;;;;;;;3.30;1.67;;;31.10;99.90;;;;;;5255573;28;20028;-73
2022/07/21 09:46:30;;;;;;;4.10;1.40;;;31.10;99.90;;;;;;5270272;28;20465;-73
2022/07/21 09:49:02;;;;;;;3.13;1.35;;;31.30;99.90;;;;;;5270538;28;20028;-74
2022/07/21 09:51:37;;;;;;;2.90;1.27;;;31.40;99.90;;;;;;5270562;28;20111;-73
2022/07/21 09:54:10;;;;;;;4.75;1.50;;;31.10;99.90;;;;;;5253922;28;20028;-76
2022/07/21 09:56:43;;;;;;;4.63;1.55;;;31.00;99.90;;;;;;5281995;28;20055;-74
2022/07/21 09:59:14;;;;;;;2.95;1.33;;;31.00;99.90;;;;;;5274828;28;20042;-74
2022/07/21 10:01:47;;;;;;;8.57;1.52;;;31.30;99.90;;;;;;5271763;28;20523;-72
2022/07/21 10:04:21;;;;;;;4.65;1.40;;;31.20;99.90;;;;;;5269489;28;20024;-71
2022/07/21 10:06:52;;;;;;;5.50;1.38;;;31.10;99.90;;;;;;5269354;28;20028;-73
2022/07/21 10:09:26;;;;;;;7.18;1.35;;;31.00;99.90;;;;;;5275127;28;20028;-70
2022/07/21 10:11:58;;;;;;;5.40;1.50;;;30.90;99.10;;;;;;5269468;28;20421;-71
2022/07/21 10:14:32;;;;;;;4.07;1.67;;;31.00;99.90;;;;;;5269548;28;20024;-72
2022/07/21 10:17:04;;;;;;;4.45;1.88;;;31.00;99.90;;;;;;5269988;28;20028;-71
2022/07/21 10:19:45;;;;;;;4.13;1.77;;;31.20;99.90;;;;;;5269321;28;20032;-70
2022/07/21 10:22:26;;;;;;;4.45;1.38;;;31.30;99.90;;;;;;5268759;28;20052;-72
2022/07/21 10:24:58;;;;;;;3.78;1.67;;;31.00;99.90;;;;;;5267244;28;20021;-72
2022/07/21 10:27:29;;;;;;;3.72;1.10;;;31.10;99.90;;;;;;5263544;28;20382;-69
2022/07/21 10:30:05;;;;;;;4.77;1.30;;;31.20;99.90;;;;;;5265063;28;20024;-70
2022/07/21 10:32:47;;;;;;;4.80;1.80;;;30.70;99.90;;;;;;5269343;28;20054;-71
2022/07/21 10:35:28;;;;;;;2.22;1.17;;;31.20;99.90;;;;;;5269274;28;20024;-71
2022/07/21 10:38:00;;;;;;;7.28;2.30;;;31.30;99.90;;;;;;5268769;28;20036;-72
2022/07/21 10:40:32;;;;;;;4.82;1.67;;;31.30;99.90;;;;;;5268845;28;20028;-72
2022/07/21 10:43:03;;;;;;;2.90;1.60;;;31.30;99.90;;;;;;5269070;28;20418;-72
2022/07/21 10:45:39;;;;;;;7.00;1.70;;;30.70;99.90;;;;;;5269026;28;20035;-73
2022/07/21 10:48:39;;;;;;;5.28;1.65;;;30.80;99.90;;;;;;5264528;28;20086;-71
2022/07/21 10:51:15;;;;;;;4.45;1.67;;;30.60;99.90;;;;;;5266602;28;20020;-73
2022/07/21 10:54:06;;;;;;;6.32;1.65;;;30.40;99.90;;;;;;5268791;28;20094;-72
2022/07/21 10:56:36;;;;;;;5.03;1.60;;;30.00;99.90;;;;;;5253837;28;20035;-72
2022/07/21 10:59:07;;;;;;;3.50;1.70;;;30.30;99.90;;;;;;5268496;28;20024;-72
2022/07/21 11:01:39;;;;;;;5.20;1.73;;;30.20;99.90;;;;;;5268729;28;20035;-73
2022/07/21 11:04:18;;;;;;;4.47;2.00;;;30.10;99.90;;;;;;5268386;28;20032;-73
2022/07/21 11:06:50;;;;;;;4.25;1.83;;;30.30;99.90;;;;;;5268386;28;20142;-74
2022/07/21 11:09:21;;;;;;;1.80;1.60;;;30.60;99.90;;;;;;5268494;28;20110;-73
2022/07/21 11:12:03;;;;;;;4.90;1.40;;;30.20;99.90;;;;;;5268460;28;20404;-69
2022/07/21 11:14:37;;;;;;;4.72;1.95;;;30.50;99.90;;;;;;5266178;28;20050;-72
2022/07/21 11:17:10;;;;;;;4.38;1.80;;;30.30;99.90;;;;;;5260081;28;20033;-70
2022/07/21 11:19:50;;;;;;;8.48;2.28;;;30.20;99.90;;;;;;5259351;28;20047;-69
2022/07/21 11:22:22;;;;;;;4.05;2.03;;;30.50;99.90;;;;;;5259926;28;20039;-71
2022/07/21 11:25:03;;;;;;;6.13;1.90;;;29.80;99.90;;;;;;5239199;28;20073;-69
2022/07/21 11:27:36;;;;;;;5.47;1.95;;;29.80;99.90;;;;;;5243833;28;20111;-69
2022/07/21 11:30:09;;;;;;;12.05;1.90;;;30.10;99.90;;;;;;5266468;28;20097;-72
2022/07/21 11:32:47;;;;;;;7.40;2.42;;;30.00;99.90;;;;;;5267978;28;20024;-73
2022/07/21 11:35:18;;;;;;;3.58;1.60;;;30.10;99.90;;;;;;5268118;28;20035;-68
2022/07/21 11:37:49;;;;;;;4.72;2.00;;;30.00;99.90;;;;;;5265751;28;20050;-69
2022/07/21 11:40:20;;;;;;;5.35;2.08;;;29.80;99.90;;;;;;5267702;28;20012;-69
2022/07/21 11:42:53;;;;;;;5.53;2.08;;;29.40;99.90;;;;;;5278765;28;20039;-72
2022/07/21 11:45:25;;;;;;;5.45;2.10;;;30.10;99.90;;;;;;5266441;28;20485;-73
2022/07/21 11:47:56;;;;;;;3.97;1.98;;;30.00;99.90;;;;;;5265720;28;20060;-73
2022/07/21 11:50:28;;;;;;;4.07;2.00;;;29.90;99.90;;;;;;5267860;28;20403;-73
2022/07/21 11:53:01;;;;;;;5.95;1.90;;;30.20;99.90;;;;;;5267944;28;20050;-73
2022/07/21 11:55:32;;;;;;;5.35;1.70;;;30.30;99.90;;;;;;5256419;28;20356;-73
2022/07/21 11:58:02;;;;;;;4.63;1.90;;;29.80;99.90;;;;;;5267607;28;20082;-69
2022/07/21 12:00:33;;;;;;;8.45;2.20;;;29.40;99.90;;;;;;5264217;28;20021;-70
2022/07/21 12:03:07;;;;;;;8.93;2.40;;;30.10;99.90;;;;;;5267563;28;20036;-69
2022/07/21 12:05:39;;;;;;;5.40;2.40;;;29.50;99.90;;;;;;5267772;28;20027;-73
2022/07/21 12:08:10;;;;;;;5.60;2.28;;;30.10;99.90;;;;;;5267259;28;20487;-73
2022/07/21 12:10:41;;;;;;;5.50;2.20;;;29.30;99.90;;;;;;5267649;28;20470;-71
2022/07/21 12:13:11;;;;;;;7.50;2.22;;;29.40;99.90;;;;;;5267878;28;20028;-71
2022/07/21 12:15:43;;;;;;;9.95;2.42;;;29.60;99.90;;;;;;5267652;28;20077;-68
2022/07/21 12:18:24;;;;;;;4.20;2.13;;;29.50;99.90;;;;;;5267493;28;20135;-72
2022/07/21 12:21:06;;;;;;;6.05;2.47;;;30.30;99.90;;;;;;5266965;28;20020;-72
2022/07/21 12:23:38;;;;;;;8.13;1.80;;;29.80;99.90;;;;;;5267740;28;20024;-74
2022/07/21 12:26:21;;;;;;;5.00;1.90;;;29.80;99.90;;;;;;5267369;28;20107;-69
2022/07/21 12:28:56;;;;;;;6.40;2.33;;;29.90;99.90;;;;;;5267526;28;20366;-73
2022/07/21 12:31:27;;;;;;;5.05;2.20;;;30.70;99.90;;;;;;5267525;28;20031;-73
2022/07/21 12:34:11;;;;;;;4.45;1.95;;;30.10;99.90;;;;;;5263910;28;20473;-73
2022/07/21 12:36:42;;;;;;;4.72;2.28;;;30.10;99.90;;;;;;5267383;28;20032;-74
2022/07/21 12:42:38;;;;;;;12.55;2.45;;;29.90;99.90;;;;;;5267516;28;20051;-71
2022/07/21 12:45:14;;;;;;;5.20;2.38;;;30.50;99.90;;;;;;5270583;28;20042;-73
2022/07/21 12:48:10;;;;;;;5.93;2.08;;;30.70;99.90;;;;;;5271602;28;20096;-72
2022/07/21 12:50:42;;;;;;;3.53;2.28;;;29.90;99.90;;;;;;5257474;28;20050;-72
2022/07/21 12:53:12;;;;;;;7.32;2.60;;;30.30;99.90;;;;;;5262639;28;20028;-73
2022/07/21 12:55:43;;;;;;;7.22;2.70;;;30.40;99.90;;;;;;5271127;28;20035;-72
2022/07/21 12:58:15;;;;;;;4.25;2.20;;;29.80;99.90;;;;;;5270837;28;20080;-72
2022/07/21 13:00:45;;;;;;;8.40;2.20;;;30.00;99.90;;;;;;5271070;28;20031;-71
2022/07/21 13:03:16;;;;;;;6.07;1.83;;;29.90;99.90;;;;;;5271193;28;20028;-69
2022/07/21 13:05:47;;;;;;;5.43;2.13;;;30.30;99.90;;;;;;5271087;28;20027;-73
2022/07/21 13:08:18;;;;;;;5.88;1.90;;;29.50;99.90;;;;;;5270440;28;20387;-70
2022/07/21 13:10:49;;;;;;;8.60;2.50;;;29.70;99.90;;;;;;5270756;28;20054;-73
2022/07/21 13:13:23;;;;;;;4.55;2.03;;;29.80;99.90;;;;;;5261182;28;20027;-73
2022/07/21 13:15:55;;;;;;;5.88;2.53;;;29.80;99.90;;;;;;5270769;28;20451;-74
2022/07/21 13:18:26;;;;;;;8.98;2.10;;;29.60;99.90;;;;;;5266787;28;20023;-72
2022/07/21 13:20:58;;;;;;;9.98;2.40;;;29.20;99.90;;;;;;5268035;28;20024;-75
2022/07/21 13:23:29;;;;;;;10.60;2.83;;;29.50;99.90;;;;;;5270743;28;20546;-72
2022/07/21 13:26:00;;;;;;;10.55;3.00;;;29.50;99.90;;;;;;5270552;28;20509;-74
2022/07/21 13:28:34;;;;;;;7.30;2.22;;;29.40;99.90;;;;;;5270402;28;20016;-73
2022/07/21 13:31:06;;;;;;;4.35;2.38;;;29.70;99.90;;;;;;5270379;28;20032;-71
2022/07/21 13:33:37;;;;;;;5.43;2.60;;;29.20;99.90;;;;;;5270613;28;20379;-72
2022/07/21 13:36:09;;;;;;;11.18;3.08;;;28.90;99.90;;;;;;5270225;28;20024;-69
2022/07/21 13:38:40;;;;;;;6.72;2.70;;;29.50;99.90;;;;;;5270042;28;20040;-70
2022/07/21 13:41:11;;;;;;;4.50;2.17;;;28.90;99.90;;;;;;5270436;28;20028;-69
2022/07/21 13:43:42;;;;;;;8.30;2.80;;;29.00;99.90;;;;;;5275476;28;20493;-73
2022/07/21 13:46:13;;;;;;;6.65;2.95;;;28.90;99.90;;;;;;5286274;28;20020;-73
2022/07/21 13:48:45;;;;;;;6.45;2.47;;;29.10;99.90;;;;;;5270158;28;20020;-72
2022/07/21 13:51:17;;;;;;;9.52;3.42;;;29.40;99.90;;;;;;5266675;28;20021;-70
2022/07/21 13:53:49;;;;;;;6.57;2.63;;;29.10;99.90;;;;;;5269830;28;20027;-71
2022/07/21 13:56:21;;;;;;;8.80;2.75;;;29.00;99.90;;;;;;5269788;28;20035;-69
2022/07/21 13:58:51;;;;;;;6.50;2.70;;;29.30;99.90;;;;;;5269746;28;20206;-70
2022/07/21 14:01:23;;;;;;;12.43;2.35;;;29.70;99.90;;;;;;5269909;28;20099;-71
2022/07/21 14:03:53;;;;;;;7.00;2.40;;;29.20;99.90;;;;;;5269812;28;20049;-72
2022/07/21 14:06:25;;;;;;;6.18;2.40;;;28.70;99.90;;;;;;5269627;28;20012;-70
2022/07/21 14:08:56;;;;;;;9.65;2.80;;;28.90;99.90;;;;;;5269444;28;20044;-72
2022/07/21 14:11:28;;;;;;;9.07;3.22;;;29.00;99.90;;;;;;5269675;28;20031;-70
2022/07/21 14:14:00;;;;;;;13.00;9.38;;;29.20;99.90;;;;;;5269557;28;20494;-71
2022/07/21 14:16:31;;;;;;;8.90;4.20;;;28.80;99.90;;;;;;5269514;28;20023;-70
2022/07/21 14:19:01;;;;;;;10.38;4.40;;;29.00;99.90;;;;;;5260587;28;20044;-71
2022/07/21 14:21:32;;;;;;;11.02;2.72;;;28.70;99.90;;;;;;5269509;28;20383;-72
2022/07/21 14:26:53;;;;;;;9.50;2.90;;;28.70;99.90;;;;;;5269509;28;20089;-71
2022/07/21 14:29:24;;;;;;;11.55;3.35;;;28.90;99.90;;;;;;5269217;28;20111;-72
2022/07/21 14:31:55;;;;;;;7.40;2.90;;;29.00;99.90;;;;;;5264324;28;20023;-72
2022/07/21 14:34:27;;;;;;;14.25;3.05;;;29.20;99.90;;;;;;5269123;28;20016;-71
2022/07/21 14:36:58;;;;;;;10.35;3.40;;;29.20;99.90;;;;;;5269073;28;20036;-73
2022/07/21 14:39:29;;;;;;;9.32;2.60;;;28.50;99.90;;;;;;5260761;28;20134;-72
2022/07/21 14:42:00;;;;;;;10.95;3.40;;;28.40;99.90;;;;;;5269021;28;20028;-71
2022/07/21 14:44:31;;;;;;;8.63;2.72;;;28.60;99.90;;;;;;5269049;28;20443;-73
2022/07/21 14:47:02;;;;;;;12.13;3.50;;;28.80;99.90;;;;;;5269036;28;20028;-72
2022/07/21 14:49:36;;;;;;;10.05;3.95;;;29.00;99.90;;;;;;5269012;28;20012;-71
2022/07/21 14:52:09;;;;;;;10.35;3.67;;;29.10;99.90;;;;;;5268932;28;20502;-73
2022/07/21 14:54:39;;;;;;;5.57;3.03;;;28.40;99.90;;;;;;5268865;28;20494;-73
2022/07/21 14:57:10;;;;;;;11.02;3.10;;;28.70;99.90;;;;;;5268563;28;20020;-72
2022/07/21 14:59:41;;;;;;;6.70;3.22;;;28.40;99.90;;;;;;5268645;28;20066;-73
2022/07/21 15:02:12;;;;;;;10.57;3.00;;;28.40;99.90;;;;;;5268545;28;20095;-70
2022/07/21 15:04:43;;;;;;;6.82;3.33;;;28.70;99.90;;;;;;5268590;28;20028;-70
2022/07/21 15:07:14;;;;;;;6.97;3.10;;;28.20;99.90;;;;;;5267734;28;20048;-72
2022/07/21 15:09:44;;;;;;;6.38;3.17;;;28.20;99.90;;;;;;5268748;28;20035;-72
2022/07/21 15:12:15;;;;;;;8.50;3.10;;;28.00;99.90;;;;;;5268540;28;20157;-71
2022/07/21 15:14:46;;;;;;;9.55;3.50;;;28.10;99.90;;;;;;5268482;28;20379;-72
2022/07/21 15:17:17;;;;;;;9.70;3.25;;;28.30;99.90;;;;;;5268408;28;20061;-71
2022/07/21 15:19:48;;;;;;;8.20;3.20;;;28.00;99.90;;;;;;5268365;28;20133;-70
2022/07/21 15:22:19;;;;;;;10.23;3.45;;;27.90;99.90;;;;;;5268151;28;20027;-71
2022/07/21 15:24:50;;;;;;;8.52;3.58;;;27.60;99.90;;;;;;5268328;28;20016;-72
2022/07/21 15:27:20;;;;;;;11.50;3.65;;;27.50;99.90;;;;;;5268357;28;20028;-72
2022/07/21 15:29:52;;;;;;;8.30;3.50;;;27.20;99.90;;;;;;5268085;28;20020;-72
2022/07/21 15:32:23;;;;;;;7.95;3.42;;;27.80;99.90;;;;;;5268027;28;20073;-69
2022/07/21 15:34:53;;;;;;;9.43;3.60;;;27.50;99.90;;;;;;5268262;28;20105;-71
2022/07/21 15:37:24;;;;;;;6.72;3.40;;;27.30;99.90;;;;;;5268085;28;20054;-72
2022/07/21 15:39:55;;;;;;;9.75;3.65;;;26.80;99.90;;;;;;5262823;28;20016;-72
2022/07/21 15:42:28;;;;;;;9.20;3.85;;;26.80;99.90;;;;;;5274542;28;20028;-73
2022/07/21 15:45:02;;;;;;;8.00;3.42;;;26.90;99.90;;;;;;5268187;28;20024;-69
2022/07/21 15:47:33;;;;;;;11.05;6.22;;;26.60;99.90;;;;;;5263512;28;20020;-70
2022/07/21 15:50:05;;;;;;;8.25;4.47;;;26.90;99.90;;;;;;5267704;28;20474;-73
2022/07/21 15:52:36;;;;;;;10.10;4.47;;;26.50;99.90;;;;;;5268028;28;20028;-72
2022/07/21 15:55:08;;;;;;;11.93;4.30;;;26.40;99.90;;;;;;5267358;28;20154;-72
2022/07/21 15:57:40;;;;;;;12.10;4.25;;;26.20;99.90;;;;;;5266606;28;20020;-71
2022/07/21 16:00:12;;;;;;;11.40;4.22;;;25.90;99.90;;;;;;5250360;28;20087;-71
2022/07/21 16:02:44;;;;;;;14.02;4.90;;;26.20;99.90;;;;;;5264814;28;20020;-72
2022/07/21 16:05:19;;;;;;;8.60;4.13;;;26.00;99.90;;;;;;5275702;28;20506;-73
2022/07/21 16:07:52;;;;;;;10.57;4.35;;;26.00;99.90;;;;;;5253572;28;20052;-72
2022/07/21 16:10:24;;;;;;;12.70;4.25;;;26.00;99.90;;;;;;5262089;28;20028;-72
2022/07/21 16:12:55;;;;;;;12.85;4.90;;;26.10;99.90;;;;;;5267805;28;20028;-69
2022/07/21 16:15:26;;;;;;;14.32;4.68;;;25.70;99.90;;;;;;5267674;28;20032;-74
2022/07/21 16:17:57;;;;;;;10.27;4.20;;;25.70;99.90;;;;;;5266696;28;20036;-73
2022/07/21 16:20:29;;;;;;;10.60;4.30;;;25.40;99.90;;;;;;5268309;28;20028;-74
2022/07/21 16:22:59;;;;;;;12.85;4.43;;;25.60;99.90;;;;;;5263799;28;20135;-72